sensor_id;sensor_type;location;lat;lon;timestamp;P1;durP1;ratioP1;P2;durP2;ratioP2
58864;SDS011;45702;52.982;6.658;2023-08-06T00:00:44;55.20;;;25.17;;
58864;SDS011;45702;52.982;6.658;2023-08-06T00:03:10;60.88;;;25.15;;
58864;SDS011;45702;52.982;6.658;2023-08-06T00:05:36;48.70;;;23.77;;
58864;SDS011;45702;52.982;6.658;2023-08-06T00:08:01;51.88;;;24.58;;
58864;SDS011;45702;52.982;6.658;2023-08-06T00:10:27;47.15;;;23.17;;
58864;SDS011;45702;52.982;6.658;2023-08-06T00:12:53;45.47;;;23.20;;
58864;SDS011;45702;52.982;6.658;2023-08-06T00:15:19;44.25;;;22.45;;
58864;SDS011;45702;52.982;6.658;2023-08-06T00:17:44;44.88;;;22.45;;
58864;SDS011;45702;52.982;6.658;2023-08-06T00:20:10;54.88;;;23.52;;
58864;SDS011;45702;52.982;6.658;2023-08-06T00:22:37;43.38;;;22.88;;
58864;SDS011;45702;52.982;6.658;2023-08-06T00:25:03;39.80;;;21.17;;
58864;SDS011;45702;52.982;6.658;2023-08-06T00:27:30;44.78;;;21.73;;
58864;SDS011;45702;52.982;6.658;2023-08-06T00:29:57;45.72;;;22.02;;
58864;SDS011;45702;52.982;6.658;2023-08-06T00:32:23;45.72;;;22.63;;
58864;SDS011;45702;52.982;6.658;2023-08-06T00:34:49;40.72;;;21.92;;
58864;SDS011;45702;52.982;6.658;2023-08-06T00:37:17;39.15;;;21.00;;
58864;SDS011;45702;52.982;6.658;2023-08-06T00:39:43;37.72;;;21.20;;
58864;SDS011;45702;52.982;6.658;2023-08-06T00:42:09;44.08;;;21.30;;
58864;SDS011;45702;52.982;6.658;2023-08-06T00:44:36;41.17;;;21.60;;
58864;SDS011;45702;52.982;6.658;2023-08-06T00:47:02;43.80;;;22.17;;
58864;SDS011;45702;52.982;6.658;2023-08-06T00:49:28;43.85;;;21.42;;
58864;SDS011;45702;52.982;6.658;2023-08-06T00:51:54;43.42;;;21.25;;
58864;SDS011;45702;52.982;6.658;2023-08-06T00:54:21;43.47;;;20.90;;
58864;SDS011;45702;52.982;6.658;2023-08-06T00:56:47;43.97;;;21.20;;
58864;SDS011;45702;52.982;6.658;2023-08-06T00:59:12;40.38;;;20.63;;
58864;SDS011;45702;52.982;6.658;2023-08-06T01:01:39;45.00;;;20.83;;
58864;SDS011;45702;52.982;6.658;2023-08-06T01:04:04;46.42;;;21.30;;
58864;SDS011;45702;52.982;6.658;2023-08-06T01:09:30;39.70;;;19.77;;
58864;SDS011;45702;52.982;6.658;2023-08-06T01:11:59;35.13;;;19.65;;
58864;SDS011;45702;52.982;6.658;2023-08-06T01:14:43;41.13;;;20.23;;
58864;SDS011;45702;52.982;6.658;2023-08-06T01:17:30;42.65;;;20.85;;
58864;SDS011;45702;52.982;6.658;2023-08-06T01:19:56;43.75;;;20.83;;
58864;SDS011;45702;52.982;6.658;2023-08-06T01:22:22;36.47;;;18.98;;
58864;SDS011;45702;52.982;6.658;2023-08-06T01:24:48;43.85;;;20.15;;
58864;SDS011;45702;52.982;6.658;2023-08-06T01:32:33;40.65;;;20.50;;
58864;SDS011;45702;52.982;6.658;2023-08-06T01:35:00;40.53;;;19.92;;
58864;SDS011;45702;52.982;6.658;2023-08-06T01:37:28;39.75;;;20.08;;
58864;SDS011;45702;52.982;6.658;2023-08-06T01:39:54;40.22;;;19.77;;
58864;SDS011;45702;52.982;6.658;2023-08-06T01:42:20;36.00;;;19.85;;
58864;SDS011;45702;52.982;6.658;2023-08-06T01:44:46;41.95;;;20.45;;
58864;SDS011;45702;52.982;6.658;2023-08-06T01:47:13;41.33;;;20.67;;
58864;SDS011;45702;52.982;6.658;2023-08-06T01:49:38;39.92;;;19.98;;
58864;SDS011;45702;52.982;6.658;2023-08-06T01:52:04;48.13;;;22.08;;
58864;SDS011;45702;52.982;6.658;2023-08-06T01:54:30;42.88;;;20.23;;
58864;SDS011;45702;52.982;6.658;2023-08-06T01:56:56;39.83;;;19.50;;
58864;SDS011;45702;52.982;6.658;2023-08-06T01:59:23;46.78;;;21.55;;
58864;SDS011;45702;52.982;6.658;2023-08-06T02:01:49;41.28;;;20.50;;
58864;SDS011;45702;52.982;6.658;2023-08-06T02:04:15;43.78;;;20.70;;
58864;SDS011;45702;52.982;6.658;2023-08-06T02:06:40;39.30;;;21.00;;
58864;SDS011;45702;52.982;6.658;2023-08-06T02:09:06;43.55;;;21.13;;
58864;SDS011;45702;52.982;6.658;2023-08-06T02:11:31;37.17;;;19.70;;
58864;SDS011;45702;52.982;6.658;2023-08-06T02:13:57;38.55;;;19.65;;
58864;SDS011;45702;52.982;6.658;2023-08-06T02:16:23;38.83;;;19.42;;
58864;SDS011;45702;52.982;6.658;2023-08-06T02:18:48;36.58;;;19.30;;
58864;SDS011;45702;52.982;6.658;2023-08-06T02:21:14;42.10;;;19.25;;
58864;SDS011;45702;52.982;6.658;2023-08-06T02:23:40;38.10;;;19.45;;
58864;SDS011;45702;52.982;6.658;2023-08-06T02:26:05;40.65;;;18.10;;
58864;SDS011;45702;52.982;6.658;2023-08-06T02:28:31;38.67;;;18.73;;
58864;SDS011;45702;52.982;6.658;2023-08-06T02:30:57;36.17;;;18.58;;
58864;SDS011;45702;52.982;6.658;2023-08-06T02:33:23;50.80;;;18.80;;
58864;SDS011;45702;52.982;6.658;2023-08-06T02:35:49;35.80;;;19.15;;
58864;SDS011;45702;52.982;6.658;2023-08-06T02:38:15;40.72;;;20.00;;
58864;SDS011;45702;52.982;6.658;2023-08-06T02:40:46;40.28;;;20.05;;
58864;SDS011;45702;52.982;6.658;2023-08-06T02:43:12;37.10;;;19.38;;
58864;SDS011;45702;52.982;6.658;2023-08-06T02:45:39;39.42;;;19.65;;
58864;SDS011;45702;52.982;6.658;2023-08-06T02:48:05;38.03;;;20.42;;
58864;SDS011;45702;52.982;6.658;2023-08-06T02:50:31;38.88;;;20.00;;
58864;SDS011;45702;52.982;6.658;2023-08-06T02:53:02;43.30;;;19.95;;
58864;SDS011;45702;52.982;6.658;2023-08-06T02:55:28;39.13;;;20.58;;
58864;SDS011;45702;52.982;6.658;2023-08-06T02:57:53;43.00;;;19.80;;
58864;SDS011;45702;52.982;6.658;2023-08-06T03:00:19;40.05;;;20.15;;
58864;SDS011;45702;52.982;6.658;2023-08-06T03:02:45;40.30;;;20.13;;
58864;SDS011;45702;52.982;6.658;2023-08-06T03:05:10;40.30;;;19.85;;
58864;SDS011;45702;52.982;6.658;2023-08-06T03:07:36;44.60;;;20.17;;
58864;SDS011;45702;52.982;6.658;2023-08-06T03:10:02;39.55;;;19.75;;
58864;SDS011;45702;52.982;6.658;2023-08-06T03:12:28;41.42;;;20.60;;
58864;SDS011;45702;52.982;6.658;2023-08-06T03:14:54;39.75;;;20.73;;
58864;SDS011;45702;52.982;6.658;2023-08-06T03:17:20;38.67;;;19.50;;
58864;SDS011;45702;52.982;6.658;2023-08-06T03:19:45;43.10;;;21.13;;
58864;SDS011;45702;52.982;6.658;2023-08-06T03:22:11;42.53;;;19.48;;
58864;SDS011;45702;52.982;6.658;2023-08-06T03:24:37;46.63;;;21.35;;
58864;SDS011;45702;52.982;6.658;2023-08-06T03:27:02;37.00;;;20.00;;
58864;SDS011;45702;52.982;6.658;2023-08-06T03:29:28;41.50;;;19.67;;
58864;SDS011;45702;52.982;6.658;2023-08-06T03:31:54;42.40;;;19.77;;
58864;SDS011;45702;52.982;6.658;2023-08-06T03:34:19;48.85;;;21.45;;
58864;SDS011;45702;52.982;6.658;2023-08-06T03:36:45;46.30;;;21.17;;
58864;SDS011;45702;52.982;6.658;2023-08-06T03:39:11;42.22;;;19.85;;
58864;SDS011;45702;52.982;6.658;2023-08-06T03:41:37;41.08;;;20.25;;
58864;SDS011;45702;52.982;6.658;2023-08-06T03:44:03;49.15;;;21.25;;
58864;SDS011;45702;52.982;6.658;2023-08-06T03:46:29;45.08;;;20.73;;
58864;SDS011;45702;52.982;6.658;2023-08-06T03:48:58;44.80;;;20.27;;
58864;SDS011;45702;52.982;6.658;2023-08-06T03:51:25;51.83;;;21.52;;
58864;SDS011;45702;52.982;6.658;2023-08-06T03:53:50;49.83;;;21.60;;
58864;SDS011;45702;52.982;6.658;2023-08-06T03:56:17;48.90;;;21.63;;
58864;SDS011;45702;52.982;6.658;2023-08-06T03:58:42;54.47;;;21.95;;
58864;SDS011;45702;52.982;6.658;2023-08-06T04:01:08;46.88;;;21.52;;
58864;SDS011;45702;52.982;6.658;2023-08-06T04:03:34;45.80;;;20.80;;
58864;SDS011;45702;52.982;6.658;2023-08-06T04:05:59;55.35;;;22.02;;
58864;SDS011;45702;52.982;6.658;2023-08-06T04:08:29;38.40;;;19.50;;
58864;SDS011;45702;52.982;6.658;2023-08-06T04:10:55;45.67;;;21.63;;
58864;SDS011;45702;52.982;6.658;2023-08-06T04:13:21;51.90;;;21.50;;
58864;SDS011;45702;52.982;6.658;2023-08-06T04:15:46;44.72;;;20.65;;
58864;SDS011;45702;52.982;6.658;2023-08-06T04:18:13;47.33;;;21.48;;
58864;SDS011;45702;52.982;6.658;2023-08-06T04:20:42;49.47;;;23.05;;
58864;SDS011;45702;52.982;6.658;2023-08-06T04:23:11;44.90;;;22.05;;
58864;SDS011;45702;52.982;6.658;2023-08-06T04:25:38;52.22;;;23.08;;
58864;SDS011;45702;52.982;6.658;2023-08-06T04:28:04;45.58;;;21.63;;
58864;SDS011;45702;52.982;6.658;2023-08-06T04:30:30;50.20;;;22.90;;
58864;SDS011;45702;52.982;6.658;2023-08-06T04:32:56;58.78;;;24.48;;
58864;SDS011;45702;52.982;6.658;2023-08-06T04:35:23;44.92;;;21.73;;
58864;SDS011;45702;52.982;6.658;2023-08-06T04:37:48;40.85;;;21.30;;
58864;SDS011;45702;52.982;6.658;2023-08-06T04:40:14;49.75;;;22.83;;
58864;SDS011;45702;52.982;6.658;2023-08-06T04:42:40;49.47;;;23.08;;
58864;SDS011;45702;52.982;6.658;2023-08-06T04:45:06;49.42;;;22.55;;
58864;SDS011;45702;52.982;6.658;2023-08-06T04:47:32;55.90;;;22.85;;
58864;SDS011;45702;52.982;6.658;2023-08-06T04:49:58;46.30;;;21.95;;
58864;SDS011;45702;52.982;6.658;2023-08-06T04:52:23;56.35;;;23.55;;
58864;SDS011;45702;52.982;6.658;2023-08-06T04:54:52;45.40;;;21.38;;
58864;SDS011;45702;52.982;6.658;2023-08-06T04:57:18;51.42;;;21.90;;
58864;SDS011;45702;52.982;6.658;2023-08-06T04:59:45;47.47;;;21.55;;
58864;SDS011;45702;52.982;6.658;2023-08-06T05:02:10;54.75;;;23.73;;
58864;SDS011;45702;52.982;6.658;2023-08-06T05:04:36;53.60;;;23.92;;
58864;SDS011;45702;52.982;6.658;2023-08-06T05:07:02;45.78;;;22.88;;
58864;SDS011;45702;52.982;6.658;2023-08-06T05:09:28;50.47;;;24.17;;
58864;SDS011;45702;52.982;6.658;2023-08-06T05:11:54;58.03;;;25.02;;
58864;SDS011;45702;52.982;6.658;2023-08-06T05:14:20;57.33;;;25.05;;
58864;SDS011;45702;52.982;6.658;2023-08-06T05:16:45;58.80;;;24.77;;
58864;SDS011;45702;52.982;6.658;2023-08-06T05:19:11;54.22;;;25.27;;
58864;SDS011;45702;52.982;6.658;2023-08-06T05:21:37;49.90;;;24.63;;
58864;SDS011;45702;52.982;6.658;2023-08-06T05:24:02;49.33;;;23.77;;
58864;SDS011;45702;52.982;6.658;2023-08-06T05:26:28;59.92;;;25.60;;
58864;SDS011;45702;52.982;6.658;2023-08-06T05:28:54;55.05;;;25.85;;
58864;SDS011;45702;52.982;6.658;2023-08-06T05:31:20;60.67;;;26.20;;
58864;SDS011;45702;52.982;6.658;2023-08-06T05:33:45;59.33;;;26.80;;
58864;SDS011;45702;52.982;6.658;2023-08-06T05:36:11;61.10;;;26.60;;
58864;SDS011;45702;52.982;6.658;2023-08-06T05:38:37;52.03;;;24.92;;
58864;SDS011;45702;52.982;6.658;2023-08-06T05:41:03;58.03;;;26.75;;
58864;SDS011;45702;52.982;6.658;2023-08-06T05:43:29;52.03;;;25.55;;
58864;SDS011;45702;52.982;6.658;2023-08-06T05:45:55;50.30;;;25.02;;
58864;SDS011;45702;52.982;6.658;2023-08-06T05:48:21;50.70;;;24.65;;
58864;SDS011;45702;52.982;6.658;2023-08-06T05:50:47;55.38;;;25.17;;
58864;SDS011;45702;52.982;6.658;2023-08-06T05:53:13;53.30;;;24.52;;
58864;SDS011;45702;52.982;6.658;2023-08-06T05:55:39;59.45;;;25.33;;
58864;SDS011;45702;52.982;6.658;2023-08-06T05:58:04;55.28;;;24.23;;
58864;SDS011;45702;52.982;6.658;2023-08-06T06:00:30;62.83;;;25.55;;
58864;SDS011;45702;52.982;6.658;2023-08-06T06:02:56;46.75;;;22.85;;
58864;SDS011;45702;52.982;6.658;2023-08-06T06:05:22;48.15;;;24.23;;
58864;SDS011;45702;52.982;6.658;2023-08-06T06:07:47;49.80;;;24.65;;
58864;SDS011;45702;52.982;6.658;2023-08-06T06:10:13;52.17;;;24.52;;
58864;SDS011;45702;52.982;6.658;2023-08-06T06:12:40;47.40;;;24.02;;
58864;SDS011;45702;52.982;6.658;2023-08-06T06:15:06;47.88;;;23.85;;
58864;SDS011;45702;52.982;6.658;2023-08-06T06:17:32;46.92;;;24.08;;
58864;SDS011;45702;52.982;6.658;2023-08-06T06:19:57;43.60;;;23.27;;
58864;SDS011;45702;52.982;6.658;2023-08-06T06:22:23;49.13;;;25.02;;
58864;SDS011;45702;52.982;6.658;2023-08-06T06:24:49;47.78;;;25.17;;
58864;SDS011;45702;52.982;6.658;2023-08-06T06:27:14;45.88;;;24.80;;
58864;SDS011;45702;52.982;6.658;2023-08-06T06:29:40;42.83;;;23.70;;
58864;SDS011;45702;52.982;6.658;2023-08-06T06:32:06;43.85;;;24.13;;
58864;SDS011;45702;52.982;6.658;2023-08-06T06:34:32;47.33;;;24.30;;
58864;SDS011;45702;52.982;6.658;2023-08-06T06:36:58;46.78;;;23.48;;
58864;SDS011;45702;52.982;6.658;2023-08-06T06:39:23;42.65;;;23.50;;
58864;SDS011;45702;52.982;6.658;2023-08-06T06:41:49;41.67;;;23.05;;
58864;SDS011;45702;52.982;6.658;2023-08-06T06:44:15;50.00;;;23.38;;
58864;SDS011;45702;52.982;6.658;2023-08-06T06:46:40;41.05;;;23.58;;
58864;SDS011;45702;52.982;6.658;2023-08-06T06:49:06;43.47;;;22.95;;
58864;SDS011;45702;52.982;6.658;2023-08-06T06:51:32;38.92;;;23.30;;
58864;SDS011;45702;52.982;6.658;2023-08-06T06:53:58;41.05;;;23.25;;
58864;SDS011;45702;52.982;6.658;2023-08-06T06:56:24;38.33;;;23.00;;
58864;SDS011;45702;52.982;6.658;2023-08-06T06:58:49;39.47;;;22.77;;
58864;SDS011;45702;52.982;6.658;2023-08-06T07:01:15;42.90;;;22.30;;
58864;SDS011;45702;52.982;6.658;2023-08-06T07:03:41;33.85;;;19.95;;
58864;SDS011;45702;52.982;6.658;2023-08-06T07:06:06;36.22;;;20.85;;
58864;SDS011;45702;52.982;6.658;2023-08-06T07:08:32;35.47;;;21.02;;
58864;SDS011;45702;52.982;6.658;2023-08-06T07:11:01;33.92;;;20.77;;
58864;SDS011;45702;52.982;6.658;2023-08-06T07:13:28;34.28;;;20.73;;
58864;SDS011;45702;52.982;6.658;2023-08-06T07:15:54;32.13;;;18.55;;
58864;SDS011;45702;52.982;6.658;2023-08-06T07:18:21;32.78;;;19.58;;
58864;SDS011;45702;52.982;6.658;2023-08-06T07:20:50;32.15;;;19.13;;
58864;SDS011;45702;52.982;6.658;2023-08-06T07:23:17;33.83;;;19.75;;
58864;SDS011;45702;52.982;6.658;2023-08-06T07:25:46;30.50;;;19.23;;
58864;SDS011;45702;52.982;6.658;2023-08-06T07:28:13;34.15;;;20.08;;
58864;SDS011;45702;52.982;6.658;2023-08-06T07:30:39;36.08;;;20.65;;
58864;SDS011;45702;52.982;6.658;2023-08-06T07:33:06;32.13;;;19.30;;
58864;SDS011;45702;52.982;6.658;2023-08-06T07:35:31;28.85;;;18.98;;
58864;SDS011;45702;52.982;6.658;2023-08-06T07:37:58;29.65;;;18.65;;
58864;SDS011;45702;52.982;6.658;2023-08-06T07:40:24;34.30;;;19.95;;
58864;SDS011;45702;52.982;6.658;2023-08-06T07:42:49;30.35;;;19.58;;
58864;SDS011;45702;52.982;6.658;2023-08-06T07:45:15;32.65;;;19.30;;
58864;SDS011;45702;52.982;6.658;2023-08-06T07:47:41;31.52;;;18.73;;
58864;SDS011;45702;52.982;6.658;2023-08-06T07:50:08;29.13;;;19.48;;
58864;SDS011;45702;52.982;6.658;2023-08-06T07:52:34;31.02;;;18.02;;
58864;SDS011;45702;52.982;6.658;2023-08-06T07:55:00;29.52;;;18.50;;
58864;SDS011;45702;52.982;6.658;2023-08-06T07:57:29;27.10;;;16.98;;
58864;SDS011;45702;52.982;6.658;2023-08-06T07:59:59;26.98;;;16.90;;
58864;SDS011;45702;52.982;6.658;2023-08-06T08:02:26;28.25;;;17.08;;
58864;SDS011;45702;52.982;6.658;2023-08-06T08:04:51;25.25;;;17.10;;
58864;SDS011;45702;52.982;6.658;2023-08-06T08:07:18;25.38;;;16.13;;
58864;SDS011;45702;52.982;6.658;2023-08-06T08:09:44;26.10;;;16.15;;
58864;SDS011;45702;52.982;6.658;2023-08-06T08:12:09;24.58;;;16.65;;
58864;SDS011;45702;52.982;6.658;2023-08-06T08:14:35;22.50;;;16.33;;
58864;SDS011;45702;52.982;6.658;2023-08-06T08:17:05;26.65;;;14.57;;
58864;SDS011;45702;52.982;6.658;2023-08-06T08:19:31;20.30;;;14.70;;
58864;SDS011;45702;52.982;6.658;2023-08-06T08:21:57;23.90;;;15.38;;
58864;SDS011;45702;52.982;6.658;2023-08-06T08:24:23;22.38;;;14.18;;
58864;SDS011;45702;52.982;6.658;2023-08-06T08:26:52;21.73;;;14.32;;
58864;SDS011;45702;52.982;6.658;2023-08-06T08:29:21;22.13;;;14.82;;
58864;SDS011;45702;52.982;6.658;2023-08-06T08:31:47;20.38;;;14.13;;
58864;SDS011;45702;52.982;6.658;2023-08-06T08:34:16;19.45;;;13.48;;
58864;SDS011;45702;52.982;6.658;2023-08-06T08:36:42;17.95;;;13.23;;
58864;SDS011;45702;52.982;6.658;2023-08-06T08:39:08;21.15;;;13.27;;
58864;SDS011;45702;52.982;6.658;2023-08-06T08:41:36;18.33;;;12.57;;
58864;SDS011;45702;52.982;6.658;2023-08-06T08:44:02;24.33;;;13.90;;
58864;SDS011;45702;52.982;6.658;2023-08-06T08:46:37;20.40;;;14.38;;
58864;SDS011;45702;52.982;6.658;2023-08-06T08:49:05;25.33;;;13.68;;
58864;SDS011;45702;52.982;6.658;2023-08-06T08:51:32;19.60;;;13.23;;
58864;SDS011;45702;52.982;6.658;2023-08-06T08:53:59;16.52;;;12.23;;
58864;SDS011;45702;52.982;6.658;2023-08-06T08:56:27;16.77;;;12.73;;
58864;SDS011;45702;52.982;6.658;2023-08-06T08:58:53;16.50;;;11.85;;
58864;SDS011;45702;52.982;6.658;2023-08-06T09:01:20;17.75;;;11.93;;
58864;SDS011;45702;52.982;6.658;2023-08-06T09:03:47;16.90;;;11.65;;
58864;SDS011;45702;52.982;6.658;2023-08-06T09:06:13;15.50;;;10.05;;
58864;SDS011;45702;52.982;6.658;2023-08-06T09:08:47;14.93;;;9.98;;
58864;SDS011;45702;52.982;6.658;2023-08-06T09:11:19;15.35;;;10.48;;
58864;SDS011;45702;52.982;6.658;2023-08-06T09:13:46;16.95;;;10.43;;
58864;SDS011;45702;52.982;6.658;2023-08-06T09:16:12;15.38;;;10.43;;
58864;SDS011;45702;52.982;6.658;2023-08-06T09:18:38;17.42;;;11.18;;
58864;SDS011;45702;52.982;6.658;2023-08-06T09:21:05;19.08;;;11.00;;
58864;SDS011;45702;52.982;6.658;2023-08-06T09:23:38;15.30;;;10.80;;
58864;SDS011;45702;52.982;6.658;2023-08-06T09:26:11;14.40;;;10.88;;
58864;SDS011;45702;52.982;6.658;2023-08-06T09:28:38;14.57;;;9.25;;
58864;SDS011;45702;52.982;6.658;2023-08-06T09:31:06;12.88;;;9.95;;
58864;SDS011;45702;52.982;6.658;2023-08-06T09:33:32;11.15;;;8.50;;
58864;SDS011;45702;52.982;6.658;2023-08-06T09:36:06;11.85;;;8.40;;
58864;SDS011;45702;52.982;6.658;2023-08-06T09:38:38;11.57;;;8.07;;
58864;SDS011;45702;52.982;6.658;2023-08-06T09:41:05;15.68;;;9.18;;
58864;SDS011;45702;52.982;6.658;2023-08-06T09:43:39;12.77;;;8.77;;
58864;SDS011;45702;52.982;6.658;2023-08-06T09:46:12;13.77;;;8.75;;
58864;SDS011;45702;52.982;6.658;2023-08-06T09:48:39;10.65;;;9.02;;
58864;SDS011;45702;52.982;6.658;2023-08-06T09:51:06;14.80;;;8.52;;
58864;SDS011;45702;52.982;6.658;2023-08-06T09:53:33;12.10;;;8.00;;
58864;SDS011;45702;52.982;6.658;2023-08-06T09:56:00;11.80;;;7.63;;
58864;SDS011;45702;52.982;6.658;2023-08-06T09:58:26;10.57;;;6.85;;
58864;SDS011;45702;52.982;6.658;2023-08-06T10:00:52;12.70;;;6.32;;
58864;SDS011;45702;52.982;6.658;2023-08-06T10:03:18;10.05;;;6.90;;
58864;SDS011;45702;52.982;6.658;2023-08-06T10:05:45;11.30;;;6.65;;
58864;SDS011;45702;52.982;6.658;2023-08-06T10:08:12;11.13;;;6.18;;
58864;SDS011;45702;52.982;6.658;2023-08-06T10:10:37;10.10;;;5.25;;
58864;SDS011;45702;52.982;6.658;2023-08-06T10:13:03;8.00;;;4.47;;
58864;SDS011;45702;52.982;6.658;2023-08-06T10:15:31;6.22;;;4.22;;
58864;SDS011;45702;52.982;6.658;2023-08-06T10:17:58;6.75;;;4.32;;
58864;SDS011;45702;52.982;6.658;2023-08-06T10:20:26;6.28;;;4.10;;
58864;SDS011;45702;52.982;6.658;2023-08-06T10:23:24;8.73;;;5.18;;
58864;SDS011;45702;52.982;6.658;2023-08-06T10:25:46;9.13;;;4.45;;
58864;SDS011;45702;52.982;6.658;2023-08-06T10:28:20;6.40;;;4.00;;
58864;SDS011;45702;52.982;6.658;2023-08-06T10:30:46;7.22;;;3.88;;
58864;SDS011;45702;52.982;6.658;2023-08-06T10:33:13;9.50;;;4.00;;
58864;SDS011;45702;52.982;6.658;2023-08-06T10:35:45;7.60;;;4.22;;
58864;SDS011;45702;52.982;6.658;2023-08-06T10:38:16;6.88;;;4.20;;
58864;SDS011;45702;52.982;6.658;2023-08-06T10:43:42;6.47;;;4.00;;
58864;SDS011;45702;52.982;6.658;2023-08-06T10:46:10;5.60;;;4.03;;
58864;SDS011;45702;52.982;6.658;2023-08-06T10:48:45;7.05;;;4.30;;
58864;SDS011;45702;52.982;6.658;2023-08-06T10:51:12;7.50;;;4.13;;
58864;SDS011;45702;52.982;6.658;2023-08-06T10:53:42;9.27;;;3.83;;
58864;SDS011;45702;52.982;6.658;2023-08-06T10:56:13;5.07;;;3.53;;
58864;SDS011;45702;52.982;6.658;2023-08-06T10:58:47;9.00;;;4.05;;
58864;SDS011;45702;52.982;6.658;2023-08-06T11:01:14;5.55;;;3.70;;
58864;SDS011;45702;52.982;6.658;2023-08-06T11:03:41;5.18;;;3.90;;
58864;SDS011;45702;52.982;6.658;2023-08-06T11:06:07;6.97;;;4.10;;
58864;SDS011;45702;52.982;6.658;2023-08-06T11:08:34;5.40;;;3.60;;
58864;SDS011;45702;52.982;6.658;2023-08-06T11:13:36;11.43;;;3.70;;
58864;SDS011;45702;52.982;6.658;2023-08-06T11:16:04;5.83;;;3.80;;
58864;SDS011;45702;52.982;6.658;2023-08-06T11:18:31;6.25;;;3.83;;
58864;SDS011;45702;52.982;6.658;2023-08-06T11:21:00;5.80;;;3.40;;
58864;SDS011;45702;52.982;6.658;2023-08-06T11:23:29;5.03;;;3.30;;
58864;SDS011;45702;52.982;6.658;2023-08-06T11:25:56;5.43;;;3.53;;
58864;SDS011;45702;52.982;6.658;2023-08-06T11:28:22;4.53;;;3.00;;
58864;SDS011;45702;52.982;6.658;2023-08-06T11:30:49;5.72;;;3.50;;
58864;SDS011;45702;52.982;6.658;2023-08-06T11:33:19;5.93;;;3.53;;
58864;SDS011;45702;52.982;6.658;2023-08-06T11:35:50;6.88;;;3.45;;
58864;SDS011;45702;52.982;6.658;2023-08-06T11:38:16;5.97;;;3.70;;
58864;SDS011;45702;52.982;6.658;2023-08-06T11:40:49;4.38;;;3.17;;
58864;SDS011;45702;52.982;6.658;2023-08-06T11:43:15;5.28;;;3.40;;
58864;SDS011;45702;52.982;6.658;2023-08-06T11:45:43;4.72;;;3.63;;
58864;SDS011;45702;52.982;6.658;2023-08-06T11:48:09;6.65;;;3.72;;
58864;SDS011;45702;52.982;6.658;2023-08-06T11:50:38;6.65;;;3.47;;
58864;SDS011;45702;52.982;6.658;2023-08-06T11:53:04;4.93;;;3.42;;
58864;SDS011;45702;52.982;6.658;2023-08-06T11:55:30;6.57;;;3.25;;
58864;SDS011;45702;52.982;6.658;2023-08-06T11:57:56;6.55;;;3.33;;
58864;SDS011;45702;52.982;6.658;2023-08-06T12:00:25;8.50;;;3.42;;
58864;SDS011;45702;52.982;6.658;2023-08-06T12:02:51;5.55;;;3.55;;
58864;SDS011;45702;52.982;6.658;2023-08-06T12:05:30;7.38;;;3.80;;
58864;SDS011;45702;52.982;6.658;2023-08-06T12:08:00;5.15;;;3.42;;
58864;SDS011;45702;52.982;6.658;2023-08-06T12:10:28;6.17;;;3.50;;
58864;SDS011;45702;52.982;6.658;2023-08-06T12:12:55;6.10;;;3.30;;
58864;SDS011;45702;52.982;6.658;2023-08-06T12:15:21;6.57;;;3.40;;
58864;SDS011;45702;52.982;6.658;2023-08-06T12:17:47;7.45;;;3.47;;
58864;SDS011;45702;52.982;6.658;2023-08-06T12:20:13;4.10;;;3.00;;
58864;SDS011;45702;52.982;6.658;2023-08-06T12:22:39;7.63;;;3.50;;
58864;SDS011;45702;52.982;6.658;2023-08-06T12:25:11;6.10;;;3.10;;
58864;SDS011;45702;52.982;6.658;2023-08-06T12:27:38;4.43;;;3.00;;
58864;SDS011;45702;52.982;6.658;2023-08-06T12:30:04;3.83;;;3.00;;
58864;SDS011;45702;52.982;6.658;2023-08-06T12:32:31;6.72;;;3.08;;
58864;SDS011;45702;52.982;6.658;2023-08-06T12:34:57;6.13;;;3.13;;
58864;SDS011;45702;52.982;6.658;2023-08-06T12:37:24;5.65;;;3.10;;
58864;SDS011;45702;52.982;6.658;2023-08-06T12:39:50;5.50;;;3.10;;
58864;SDS011;45702;52.982;6.658;2023-08-06T12:42:16;4.15;;;3.10;;
58864;SDS011;45702;52.982;6.658;2023-08-06T12:44:42;7.40;;;3.00;;
58864;SDS011;45702;52.982;6.658;2023-08-06T12:47:08;5.03;;;3.00;;
58864;SDS011;45702;52.982;6.658;2023-08-06T12:49:34;4.35;;;3.22;;
58864;SDS011;45702;52.982;6.658;2023-08-06T12:51:59;5.50;;;2.80;;
58864;SDS011;45702;52.982;6.658;2023-08-06T12:54:26;4.97;;;3.30;;
58864;SDS011;45702;52.982;6.658;2023-08-06T12:56:52;5.90;;;3.40;;
58864;SDS011;45702;52.982;6.658;2023-08-06T12:59:18;5.65;;;3.20;;
58864;SDS011;45702;52.982;6.658;2023-08-06T13:01:44;4.88;;;2.83;;
58864;SDS011;45702;52.982;6.658;2023-08-06T13:04:10;6.20;;;3.17;;
58864;SDS011;45702;52.982;6.658;2023-08-06T13:06:36;4.88;;;3.25;;
58864;SDS011;45702;52.982;6.658;2023-08-06T13:09:06;6.32;;;3.85;;
58864;SDS011;45702;52.982;6.658;2023-08-06T13:11:33;4.93;;;3.22;;
58864;SDS011;45702;52.982;6.658;2023-08-06T13:14:03;4.32;;;3.15;;
58864;SDS011;45702;52.982;6.658;2023-08-06T13:16:34;5.63;;;3.08;;
58864;SDS011;45702;52.982;6.658;2023-08-06T13:19:01;5.03;;;3.20;;
58864;SDS011;45702;52.982;6.658;2023-08-06T13:21:31;5.40;;;3.40;;
58864;SDS011;45702;52.982;6.658;2023-08-06T13:24:01;5.55;;;3.10;;
58864;SDS011;45702;52.982;6.658;2023-08-06T13:26:30;4.50;;;3.15;;
58864;SDS011;45702;52.982;6.658;2023-08-06T13:28:57;6.97;;;3.20;;
58864;SDS011;45702;52.982;6.658;2023-08-06T13:31:23;7.28;;;3.50;;
58864;SDS011;45702;52.982;6.658;2023-08-06T13:33:49;4.97;;;3.03;;
58864;SDS011;45702;52.982;6.658;2023-08-06T13:36:18;5.05;;;3.20;;
58864;SDS011;45702;52.982;6.658;2023-08-06T13:38:44;4.70;;;3.30;;
58864;SDS011;45702;52.982;6.658;2023-08-06T13:41:10;5.47;;;3.20;;
58864;SDS011;45702;52.982;6.658;2023-08-06T13:43:35;4.07;;;2.85;;
58864;SDS011;45702;52.982;6.658;2023-08-06T13:46:01;6.47;;;3.63;;
58864;SDS011;45702;52.982;6.658;2023-08-06T13:48:27;6.88;;;3.47;;
58864;SDS011;45702;52.982;6.658;2023-08-06T13:50:52;5.60;;;3.05;;
58864;SDS011;45702;52.982;6.658;2023-08-06T13:53:18;4.80;;;3.10;;
58864;SDS011;45702;52.982;6.658;2023-08-06T13:55:44;7.85;;;3.33;;
58864;SDS011;45702;52.982;6.658;2023-08-06T13:58:09;4.93;;;3.20;;
58864;SDS011;45702;52.982;6.658;2023-08-06T14:00:35;5.53;;;3.20;;
58864;SDS011;45702;52.982;6.658;2023-08-06T14:03:01;5.50;;;3.20;;
58864;SDS011;45702;52.982;6.658;2023-08-06T14:05:27;5.10;;;3.50;;
58864;SDS011;45702;52.982;6.658;2023-08-06T14:07:53;6.22;;;3.17;;
58864;SDS011;45702;52.982;6.658;2023-08-06T14:10:19;5.88;;;2.83;;
58864;SDS011;45702;52.982;6.658;2023-08-06T14:12:44;5.00;;;3.17;;
58864;SDS011;45702;52.982;6.658;2023-08-06T14:15:11;8.70;;;3.10;;
58864;SDS011;45702;52.982;6.658;2023-08-06T14:17:36;6.13;;;3.58;;
58864;SDS011;45702;52.982;6.658;2023-08-06T14:20:03;5.60;;;3.10;;
58864;SDS011;45702;52.982;6.658;2023-08-06T14:22:30;4.20;;;3.20;;
58864;SDS011;45702;52.982;6.658;2023-08-06T14:24:59;7.75;;;3.00;;
58864;SDS011;45702;52.982;6.658;2023-08-06T14:27:24;3.95;;;3.05;;
58864;SDS011;45702;52.982;6.658;2023-08-06T14:29:50;7.55;;;3.30;;
58864;SDS011;45702;52.982;6.658;2023-08-06T14:32:16;7.80;;;3.20;;
58864;SDS011;45702;52.982;6.658;2023-08-06T14:34:43;4.20;;;3.03;;
58864;SDS011;45702;52.982;6.658;2023-08-06T14:37:09;5.18;;;3.40;;
58864;SDS011;45702;52.982;6.658;2023-08-06T14:39:36;6.78;;;3.20;;
58864;SDS011;45702;52.982;6.658;2023-08-06T14:42:01;5.07;;;3.13;;